地図

経路データ

SID SEASON NUMBER BASIN SUBBASIN NAME ISO_TIME NATURE LAT LON WMO_WIND WMO_PRES WMO_AGENCY TRACK_TYPE DIST2LAND LANDFALL IFLAG USA_AGENCY USA_ATCF_ID USA_LAT USA_LON USA_RECORD USA_STATUS USA_WIND USA_PRES USA_SSHS USA_R34_NE USA_R34_SE USA_R34_SW USA_R34_NW USA_R50_NE USA_R50_SE USA_R50_SW USA_R50_NW USA_R64_NE USA_R64_SE USA_R64_SW USA_R64_NW USA_POCI USA_ROCI USA_RMW USA_EYE TOKYO_LAT TOKYO_LON TOKYO_GRADE TOKYO_WIND TOKYO_PRES TOKYO_R50_DIR TOKYO_R50_LONG TOKYO_R50_SHORT TOKYO_R30_DIR TOKYO_R30_LONG TOKYO_R30_SHORT TOKYO_LAND CMA_LAT CMA_LON CMA_CAT CMA_WIND CMA_PRES HKO_LAT HKO_LON HKO_CAT HKO_WIND HKO_PRES NEWDELHI_LAT NEWDELHI_LON NEWDELHI_GRADE NEWDELHI_WIND NEWDELHI_PRES NEWDELHI_CI NEWDELHI_DP NEWDELHI_POCI REUNION_LAT REUNION_LON REUNION_TYPE REUNION_WIND REUNION_PRES REUNION_TNUM REUNION_CI REUNION_RMW REUNION_R34_NE REUNION_R34_SE REUNION_R34_SW REUNION_R34_NW REUNION_R50_NE REUNION_R50_SE REUNION_R50_SW REUNION_R50_NW REUNION_R64_NE REUNION_R64_SE REUNION_R64_SW REUNION_R64_NW BOM_LAT BOM_LON BOM_TYPE BOM_WIND BOM_PRES BOM_TNUM BOM_CI BOM_RMW BOM_R34_NE BOM_R34_SE BOM_R34_SW BOM_R34_NW BOM_R50_NE BOM_R50_SE BOM_R50_SW BOM_R50_NW BOM_R64_NE BOM_R64_SE BOM_R64_SW BOM_R64_NW BOM_ROCI BOM_POCI BOM_EYE BOM_POS_METHOD BOM_PRES_METHOD NADI_LAT NADI_LON NADI_CAT NADI_WIND NADI_PRES WELLINGTON_LAT WELLINGTON_LON WELLINGTON_WIND WELLINGTON_PRES DS824_LAT DS824_LON DS824_STAGE DS824_WIND DS824_PRES TD9636_LAT TD9636_LON TD9636_STAGE TD9636_WIND TD9636_PRES TD9635_LAT TD9635_LON TD9635_WIND TD9635_PRES TD9635_ROCI NEUMANN_LAT NEUMANN_LON NEUMANN_CLASS NEUMANN_WIND NEUMANN_PRES MLC_LAT MLC_LON MLC_CLASS MLC_WIND MLC_PRES USA_GUST BOM_GUST BOM_GUST_PER REUNION_GUST REUNION_GUST_PER USA_SEAHGT USA_SEARAD_NE USA_SEARAD_SE USA_SEARAD_SW USA_SEARAD_NW STORM_SPEED STORM_DIR
1878345S09072 1879 42 SI MM NOT_NAMED 1878-12-11 06:00:00 NR -9.00000 72.0000 reunion spur-split 1916 1916 _____O________ -1 -9.00000 72.0000 99 9.90000 2 201
1878345S09072 1879 42 SI MM NOT_NAMED 1878-12-11 09:00:00 NR -9.09788 71.9597 spur-split 1926 1926 _____P________ -1 -9.09788 71.9597 99 2 203
1878345S09072 1879 42 SI MM NOT_NAMED 1878-12-11 12:00:00 NR -9.20548 71.9149 spur-split 1941 1941 _____P________ -1 -9.20548 71.9149 99 3 202
1878345S09072 1879 42 SI MM NOT_NAMED 1878-12-11 15:00:00 NR -9.33252 71.8612 spur-split 1946 1923 _____P________ -1 -9.33252 71.8612 99 3 202
1878345S09072 1879 42 SI MM NOT_NAMED 1878-12-11 18:00:00 NR -9.48873 71.7940 spur-split 1923 1900 _____P________ -1 -9.48873 71.7940 99 4 203
1878345S09072 1879 42 SI MM NOT_NAMED 1878-12-11 21:00:00 NR -9.68384 71.7089 spur-split 1900 1877 _____P________ -1 -9.68384 71.7089 99 5 203
1878345S09072 1879 42 SI MM NOT_NAMED 1878-12-12 00:00:00 NR -9.92761 71.6012 spur-split 1877 1848 _____P________ -1 -9.92761 71.6012 99 6 203
1878345S09072 1879 42 SI MM NOT_NAMED 1878-12-12 03:00:00 NR -10.2297 71.4665 spur-split 1848 1803 _____P________ -1 -10.2297 71.4665 99 7 204
1878345S09072 1879 42 SI MM NOT_NAMED 1878-12-12 06:00:00 NR -10.6000 71.3000 reunion spur-split 1803 1758 _____O________ -1 -10.6000 71.3000 99 9.90000 9 204
1878345S09072 1879 42 SI MM NOT_NAMED 1878-12-12 09:00:00 NR -11.0450 71.0996 spur-split 1758 1707 _____P________ -1 -11.0450 71.0996 99 11 204
1878345S09072 1879 42 SI MM NOT_NAMED 1878-12-12 12:00:00 NR -11.5589 70.8735 spur-split 1701 1642 _____P________ -1 -11.5589 70.8735 99 12 203
1878345S09072 1879 42 SI MM NOT_NAMED 1878-12-12 15:00:00 NR -12.1330 70.6329 spur-split 1642 1586 _____P________ -1 -12.1330 70.6329 99 13 202
1878345S09072 1879 42 SI MM NOT_NAMED 1878-12-12 18:00:00 NR -12.7584 70.3886 spur-split 1580 1526 _____P________ -1 -12.7584 70.3886 99 14 200
1878345S09072 1879 42 SI MM NOT_NAMED 1878-12-12 21:00:00 NR -13.4263 70.1518 spur-split 1526 1459 _____P________ -1 -13.4263 70.1518 99 14 198
1878345S09072 1879 42 SI MM NOT_NAMED 1878-12-13 00:00:00 NR -14.1282 69.9338 spur-split 1459 1412 _____P________ -1 -14.1282 69.9338 99 15 195
1878345S09072 1879 42 SI MM NOT_NAMED 1878-12-13 03:00:00 NR -14.8556 69.7460 spur-split 1398 1354 _____P________ -1 -14.8556 69.7460 99 15 192
1878345S09072 1879 42 SI MM NOT_NAMED 1878-12-13 06:00:00 NR -15.6000 69.6000 reunion spur-split 1354 1313 _____O________ -1 -15.6000 69.6000 99 9.90000 15 189
1878345S09072 1879 42 SI MM NOT_NAMED 1878-12-13 09:00:00 NR -16.3563 69.4915 spur-split 1309 1272 _____P________ -1 -16.3563 69.4915 99 16 187
1878345S09072 1879 42 SI MM NOT_NAMED 1878-12-13 12:00:00 NR -17.1430 69.4178 spur-split 1272 1247 _____P________ -1 -17.1430 69.4178 99 16 184
1878345S09072 1879 42 SI MM NOT_NAMED 1878-12-13 15:00:00 NR -17.9475 69.3804 spur-split 1247 1228 _____P________ -1 -17.9475 69.3804 99 16 181
1878345S09072 1879 42 SI MM NOT_NAMED 1878-12-13 18:00:00 NR -18.7574 69.3811 spur-split 1226 1215 _____P________ -1 -18.7574 69.3811 99 16 179
1878345S09072 1879 42 SI MM NOT_NAMED 1878-12-13 21:00:00 NR -19.5602 69.4216 spur-split 1214 1211 _____P________ -1 -19.5602 69.4216 99 16 176
1878345S09072 1879 42 SI MM NOT_NAMED 1878-12-14 00:00:00 NR -20.3433 69.5037 spur-split 1219 1219 _____P________ -1 -20.3433 69.5037 99 16 173
1878345S09072 1879 42 SI MM NOT_NAMED 1878-12-14 03:00:00 NR -21.0941 69.6292 spur-split 1230 1230 _____P________ -1 -21.0941 69.6292 99 15 169
1878345S09072 1879 42 SI MM NOT_NAMED 1878-12-14 06:00:00 NR -21.8000 69.8000 reunion spur-split 1255 1255 _____O________ -1 -21.8000 69.8000 99 9.90000 13 166
1878345S09072 1879 42 SI MM NOT_NAMED 1878-12-14 09:00:00 NR -22.3842 69.9680 spur-split 1284 1284 _____P________ -1 -22.3842 69.9680 99 12 163
1878345S09072 1879 42 SI MM NOT_NAMED 1878-12-14 12:00:00 NR -22.9220 70.1814 spur-split 1313 1313 _____P________ -1 -22.9220 70.1814 99 11 157
1878345S09072 1879 42 SI MM NOT_NAMED 1878-12-14 15:00:00 NR -23.4284 70.4398 spur-split 1344 1344 _____P________ -1 -23.4284 70.4398 99 11 153
1878345S09072 1879 42 SI MM NOT_NAMED 1878-12-14 18:00:00 NR -23.9178 70.7427 spur-split 1387 1387 _____P________ -1 -23.9178 70.7427 99 11 149
1878345S09072 1879 42 SI MM NOT_NAMED 1878-12-14 21:00:00 NR -24.4051 71.0900 spur-split 1441 1441 _____P________ -1 -24.4051 71.0900 99 12 146
1878345S09072 1879 42 SI MM NOT_NAMED 1878-12-15 00:00:00 NR -24.9048 71.4818 spur-split 1495 1495 _____P________ -1 -24.9048 71.4818 99 13 144
1878345S09072 1879 42 SI MM NOT_NAMED 1878-12-15 03:00:00 NR -25.4316 71.9183 spur-split 1551 1551 _____P________ -1 -25.4316 71.9183 99 14 143
1878345S09072 1879 42 SI MM NOT_NAMED 1878-12-15 06:00:00 NR -26.0000 72.4000 reunion spur-split 1620 1620 _____O________ -1 -26.0000 72.4000 99 9.90000 16 145
1878345S09072 1879 42 SI MM NOT_NAMED 1878-12-15 09:00:00 NR -26.7538 72.9575 spur-split 1707 1707 _____P________ -1 -26.7538 72.9575 99 19 146
1878345S09072 1879 42 SI MM NOT_NAMED 1878-12-15 12:00:00 NR -27.5550 73.5763 spur-split 1795 1795 _____P________ -1 -27.5550 73.5763 99 20 145
1878345S09072 1879 42 SI MM NOT_NAMED 1878-12-15 15:00:00 NR -28.3773 74.2407 spur-split 1885 1885 _____P________ -1 -28.3773 74.2407 99 20 144
1878345S09072 1879 42 SI MM NOT_NAMED 1878-12-15 18:00:00 NR -29.1946 74.9334 spur-split 1984 1984 _____P________ -1 -29.1946 74.9334 99 20 143
1878345S09072 1879 42 SI MM NOT_NAMED 1878-12-15 21:00:00 NR -29.9808 75.6361 spur-split 2084 2084 _____P________ -1 -29.9808 75.6361 99 19 141
1878345S09072 1879 42 SI MM NOT_NAMED 1878-12-16 00:00:00 NR -30.7104 76.3289 spur-split 2104 2051 _____P________ -1 -30.7104 76.3289 99 18 140
1878345S09072 1879 42 SI MM NOT_NAMED 1878-12-16 03:00:00 NR -31.3583 76.9909 spur-split 2043 2003 _____P________ -1 -31.3583 76.9909 99 16 138
1878345S09072 1879 42 SI MM NOT_NAMED 1878-12-16 06:00:00 NR -31.9000 77.6000 reunion spur-split 2003 1972 _____O________ -1 -31.9000 77.6000 99 9.90000 14 135
1878345S09072 1879 42 SI MM NOT_NAMED 1878-12-16 09:00:00 NR -32.3184 78.1383 spur-split 1972 1951 _____P________ -1 -32.3184 78.1383 99 11 130
1878345S09072 1879 42 SI MM NOT_NAMED 1878-12-16 12:00:00 NR -32.6237 78.6082 spur-split 1954 1939 _____P________ -1 -32.6237 78.6082 99 9 125
1878345S09072 1879 42 SI MM NOT_NAMED 1878-12-16 15:00:00 NR -32.8327 79.0181 spur-split 1945 1933 _____P________ -1 -32.8327 79.0181 99 7 118
1878345S09072 1879 42 SI MM NOT_NAMED 1878-12-16 18:00:00 NR -32.9618 79.3770 spur-split 1936 1936 _____P________ -1 -32.9618 79.3770 99 6 109
1878345S09072 1879 42 SI MM NOT_NAMED 1878-12-16 21:00:00 NR -33.0271 79.6946 spur-split 1945 1945 _____P________ -1 -33.0271 79.6946 99 5 99
1878345S09072 1879 42 SI MM NOT_NAMED 1878-12-17 00:00:00 NR -33.0448 79.9807 spur-split 1955 1955 _____P________ -1 -33.0448 79.9807 99 5 90
1878345S09072 1879 42 SI MM NOT_NAMED 1878-12-17 03:00:00 NR -33.0305 80.2457 spur-split 1962 1962 _____P________ -1 -33.0305 80.2457 99 4 84
1878345S09072 1879 42 SI MM NOT_NAMED 1878-12-17 06:00:00 NR -33.0000 80.5000 spur-split 1972 _____O________ -1 -33.0000 80.5000 99 9.90000 4 82

IBTrACS Databaseについて

本データベースは、米国NOAAが公開する1842年以降の世界の熱帯低気圧のベストトラックデータアーカイブInternational Best Track Archive for Climate Stewardship (IBTrACS)を、ウェブで閲覧しやすい形式に変換したものです。

最終更新日:2021-12-06